Time;durP1;ratioP1;P1;durP2;ratioP2;P2;SDS_P1;SDS_P2;PMS_P1;PMS_P2;Temp;Humidity;BMP_temperature;BMP_pressure;BME280_temperature;BME280_humidity;BME280_pressure;Samples;Min_cycle;Max_cycle;Signal;HPM_P1;HPM_P2
2023/05/19 00:00:30;;;;;;;;;15.00;15.00;;;;;;;;4950989;28;45580;-75
2023/05/19 00:02:55;;;;;;;;;19.00;19.00;;;;;;;;4951062;28;48510;-74
2023/05/19 00:05:21;;;;;;;;;19.00;17.67;;;;;;;;4950951;28;45906;-74
2023/05/19 00:07:50;;;;;;;;;14.00;14.00;;;;;;;;4950490;28;45379;-75
2023/05/19 00:10:16;;;;;;;;;20.67;14.00;;;;;;;;4952418;28;46332;-72
2023/05/19 00:12:41;;;;;;;;;18.33;14.00;;;;;;;;4961433;28;45520;-72
2023/05/19 00:15:07;;;;;;;;;14.67;13.33;;;;;;;;4955532;28;45586;-74
2023/05/19 00:17:33;;;;;;;;;16.67;15.67;;;;;;;;4956346;28;45480;-73
2023/05/19 00:19:58;;;;;;;;;20.00;16.33;;;;;;;;4953729;28;46135;-72
2023/05/19 00:22:23;;;;;;;;;13.33;11.67;;;;;;;;4956220;28;46142;-74
2023/05/19 00:24:49;;;;;;;;;21.67;17.00;;;;;;;;4957163;28;45452;-73
2023/05/19 00:27:14;;;;;;;;;18.33;15.67;;;;;;;;4958077;28;45476;-73
2023/05/19 00:29:39;;;;;;;;;18.67;16.00;;;;;;;;4967435;28;45485;-75
2023/05/19 00:32:05;;;;;;;;;22.00;17.67;;;;;;;;4942789;28;47121;-73
2023/05/19 00:34:30;;;;;;;;;16.00;16.00;;;;;;;;4952577;28;45743;-73
2023/05/19 00:36:55;;;;;;;;;19.33;15.67;;;;;;;;4957324;28;45858;-73
2023/05/19 00:39:20;;;;;;;;;18.33;14.00;;;;;;;;4953428;28;45737;-72
2023/05/19 00:41:46;;;;;;;;;13.00;12.00;;;;;;;;4955732;28;47096;-72
2023/05/19 00:44:11;;;;;;;;;16.67;16.00;;;;;;;;4956862;28;45724;-73
2023/05/19 00:46:36;;;;;;;;;19.33;15.33;;;;;;;;4956869;28;45838;-74
2023/05/19 00:49:02;;;;;;;;;20.00;16.33;;;;;;;;4956892;28;45781;-73
2023/05/19 00:51:28;;;;;;;;;19.67;15.00;;;;;;;;4958572;28;46283;-74
2023/05/19 00:53:53;;;;;;;;;21.67;18.67;;;;;;;;4958848;28;45352;-73
2023/05/19 00:56:19;;;;;;;;;19.00;15.67;;;;;;;;4957576;28;45582;-74
2023/05/19 00:58:45;;;;;;;;;19.33;14.33;;;;;;;;4955628;28;47260;-73
2023/05/19 01:01:13;;;;;;;;;20.00;18.00;;;;;;;;4957172;28;45683;-73
2023/05/19 01:03:39;;;;;;;;;21.67;18.67;;;;;;;;4956685;28;45450;-72
2023/05/19 01:06:05;;;;;;;;;17.67;13.67;;;;;;;;4957145;28;45870;-73
2023/05/19 01:08:31;;;;;;;;;16.33;14.00;;;;;;;;4959304;28;45645;-73
2023/05/19 01:10:56;;;;;;;;;16.00;15.00;;;;;;;;4963232;28;45535;-73
2023/05/19 01:13:21;;;;;;;;;18.00;14.00;;;;;;;;4956371;28;45795;-73
2023/05/19 01:15:59;;;;;;;;;17.00;14.00;;;;;;;;4953910;28;45799;-74
2023/05/19 01:18:30;;;;;;;;;14.33;12.00;;;;;;;;4956683;28;46524;-73
2023/05/19 01:21:04;;;;;;;;;19.00;14.33;;;;;;;;4962965;28;47191;-72
2023/05/19 01:23:35;;;;;;;;;15.33;14.33;;;;;;;;4956853;28;45737;-73
2023/05/19 01:26:10;;;;;;;;;17.67;14.33;;;;;;;;4954773;28;45928;-73
2023/05/19 01:28:44;;;;;;;;;20.67;18.00;;;;;;;;4963502;28;45745;-73
2023/05/19 01:31:10;;;;;;;;;16.67;15.00;;;;;;;;4946377;28;45723;-73
2023/05/19 01:33:36;;;;;;;;;16.67;14.00;;;;;;;;4959493;28;45429;-75
2023/05/19 01:36:02;;;;;;;;;19.00;16.00;;;;;;;;4950388;28;45876;-74
2023/05/19 01:38:28;;;;;;;;;14.67;13.33;;;;;;;;4955320;28;45750;-72
2023/05/19 01:40:54;;;;;;;;;17.00;13.00;;;;;;;;4941342;28;45618;-73
2023/05/19 01:43:21;;;;;;;;;17.00;16.00;;;;;;;;4952272;28;45815;-73
2023/05/19 01:45:46;;;;;;;;;17.67;15.33;;;;;;;;4952904;28;45440;-73
2023/05/19 01:48:13;;;;;;;;;13.00;11.00;;;;;;;;4956996;28;45406;-73
2023/05/19 01:50:39;;;;;;;;;16.00;13.33;;;;;;;;4952185;28;47228;-72
2023/05/19 01:53:04;;;;;;;;;17.67;14.00;;;;;;;;4953149;28;45799;-72
2023/05/19 01:55:30;;;;;;;;;16.00;15.00;;;;;;;;4953548;28;45779;-72
2023/05/19 01:58:01;;;;;;;;;18.67;16.00;;;;;;;;4952885;28;45700;-72
2023/05/19 02:00:29;;;;;;;;;15.00;14.00;;;;;;;;4952949;28;45503;-72
2023/05/19 02:03:02;;;;;;;;;16.67;15.33;;;;;;;;4953100;28;45503;-73
2023/05/19 02:05:39;;;;;;;;;17.00;14.00;;;;;;;;4951240;28;45707;-73
2023/05/19 02:08:04;;;;;;;;;13.67;12.67;;;;;;;;4957370;28;45548;-71
2023/05/19 02:10:31;;;;;;;;;18.00;15.33;;;;;;;;4953469;28;46331;-74
2023/05/19 02:12:59;;;;;;;;;14.00;11.00;;;;;;;;4953512;28;45416;-73
2023/05/19 02:15:27;;;;;;;;;20.33;16.33;;;;;;;;4945087;28;45779;-72
2023/05/19 02:17:54;;;;;;;;;20.67;17.33;;;;;;;;4952397;28;45833;-73
2023/05/19 02:20:22;;;;;;;;;22.00;19.00;;;;;;;;4951092;28;46754;-73
2023/05/19 02:22:48;;;;;;;;;16.00;16.00;;;;;;;;4948065;28;45825;-73
2023/05/19 02:25:13;;;;;;;;;22.00;17.67;;;;;;;;4956594;28;45756;-72
2023/05/19 02:27:39;;;;;;;;;17.33;15.33;;;;;;;;4970239;28;45505;-73
2023/05/19 02:30:05;;;;;;;;;20.67;16.00;;;;;;;;4959040;28;45763;-73
2023/05/19 02:32:30;;;;;;;;;22.33;17.67;;;;;;;;4944207;28;45873;-72
2023/05/19 02:34:56;;;;;;;;;14.00;13.00;;;;;;;;4970845;28;45776;-72
2023/05/19 02:37:27;;;;;;;;;18.00;17.00;;;;;;;;4967218;28;45537;-72
2023/05/19 02:39:52;;;;;;;;;13.67;13.33;;;;;;;;4945279;28;47072;-73
2023/05/19 02:42:18;;;;;;;;;21.00;15.67;;;;;;;;4961494;28;45507;-72
2023/05/19 02:44:43;;;;;;;;;18.33;16.00;;;;;;;;4954176;28;45361;-73
2023/05/19 02:47:08;;;;;;;;;20.33;17.67;;;;;;;;4952032;28;46066;-72
2023/05/19 02:49:34;;;;;;;;;18.67;16.00;;;;;;;;4949611;28;48354;-73
2023/05/19 02:52:00;;;;;;;;;19.67;17.00;;;;;;;;4952969;28;45766;-72
2023/05/19 02:54:25;;;;;;;;;14.33;11.67;;;;;;;;4942749;28;45742;-72
2023/05/19 02:56:50;;;;;;;;;17.33;15.67;;;;;;;;4952661;28;45481;-74
2023/05/19 02:59:16;;;;;;;;;17.67;14.33;;;;;;;;4957864;28;46835;-72
2023/05/19 03:01:41;;;;;;;;;20.00;14.67;;;;;;;;4951267;28;45393;-74
2023/05/19 03:04:06;;;;;;;;;24.33;19.67;;;;;;;;4953043;28;45566;-73
2023/05/19 03:06:31;;;;;;;;;20.67;16.67;;;;;;;;4951216;28;45479;-72
2023/05/19 03:08:57;;;;;;;;;22.00;15.00;;;;;;;;4953107;28;45801;-73
2023/05/19 03:11:22;;;;;;;;;18.67;15.00;;;;;;;;4945280;28;45525;-73
2023/05/19 03:13:47;;;;;;;;;18.00;15.00;;;;;;;;4952251;28;45679;-72
2023/05/19 03:16:13;;;;;;;;;22.00;17.00;;;;;;;;4949709;28;45988;-73
2023/05/19 03:18:38;;;;;;;;;18.00;15.67;;;;;;;;4934843;28;45817;-73
2023/05/19 03:21:04;;;;;;;;;21.00;17.00;;;;;;;;4948019;28;45408;-72
2023/05/19 03:23:30;;;;;;;;;24.00;17.00;;;;;;;;4948800;28;45657;-72
2023/05/19 03:25:55;;;;;;;;;23.67;18.67;;;;;;;;4951766;28;45562;-73
2023/05/19 03:28:22;;;;;;;;;19.00;16.33;;;;;;;;4951648;28;46268;-74
2023/05/19 03:30:48;;;;;;;;;16.33;12.33;;;;;;;;4949512;28;45712;-73
2023/05/19 03:33:14;;;;;;;;;15.00;14.67;;;;;;;;4959975;28;45764;-73
2023/05/19 03:35:39;;;;;;;;;21.67;17.33;;;;;;;;4954110;28;45979;-72
2023/05/19 03:38:04;;;;;;;;;26.00;21.00;;;;;;;;4941125;28;45964;-73
2023/05/19 03:40:29;;;;;;;;;19.67;17.67;;;;;;;;4949676;28;45496;-73
2023/05/19 03:42:55;;;;;;;;;21.00;18.33;;;;;;;;4951720;28;45409;-73
2023/05/19 03:45:20;;;;;;;;;16.67;16.67;;;;;;;;4951400;28;45969;-74
2023/05/19 03:47:46;;;;;;;;;21.67;17.00;;;;;;;;4945184;28;46247;-72
2023/05/19 03:50:11;;;;;;;;;24.33;18.00;;;;;;;;4942292;28;45873;-75
2023/05/19 03:52:37;;;;;;;;;22.00;20.33;;;;;;;;4951592;28;46157;-74
2023/05/19 03:55:03;;;;;;;;;22.00;19.67;;;;;;;;4951413;28;45954;-72
2023/05/19 03:57:28;;;;;;;;;14.67;11.67;;;;;;;;4950032;28;45805;-73
2023/05/19 03:59:53;;;;;;;;;22.00;18.00;;;;;;;;4948221;28;45606;-73
2023/05/19 04:02:18;;;;;;;;;26.33;21.33;;;;;;;;4960173;28;45414;-73
2023/05/19 04:04:43;;;;;;;;;28.00;22.67;;;;;;;;4940986;28;47042;-73
2023/05/19 04:07:09;;;;;;;;;19.33;17.00;;;;;;;;4942662;28;45789;-72
2023/05/19 04:09:34;;;;;;;;;18.67;18.00;;;;;;;;4950822;28;45687;-72
2023/05/19 04:12:01;;;;;;;;;21.00;19.33;;;;;;;;4957392;28;45496;-72
2023/05/19 04:14:26;;;;;;;;;18.67;16.00;;;;;;;;4949565;28;45861;-73
2023/05/19 04:16:52;;;;;;;;;21.00;17.00;;;;;;;;4951434;28;45515;-72
2023/05/19 04:19:17;;;;;;;;;21.00;18.00;;;;;;;;4951075;28;46079;-73
2023/05/19 04:21:43;;;;;;;;;20.33;19.00;;;;;;;;4937953;28;45945;-72
2023/05/19 04:24:08;;;;;;;;;20.33;17.00;;;;;;;;4961926;28;45861;-74
2023/05/19 04:26:33;;;;;;;;;22.33;20.00;;;;;;;;4947097;28;46026;-73
2023/05/19 04:29:00;;;;;;;;;23.33;19.33;;;;;;;;4946114;28;45925;-73
2023/05/19 04:31:27;;;;;;;;;26.67;21.67;;;;;;;;4943928;28;45868;-72
2023/05/19 04:33:52;;;;;;;;;21.67;19.00;;;;;;;;4945310;28;46178;-73
2023/05/19 04:36:20;;;;;;;;;21.67;19.00;;;;;;;;4942330;28;46041;-73
2023/05/19 04:38:45;;;;;;;;;27.00;24.67;;;;;;;;4951860;28;45781;-72
2023/05/19 04:41:11;;;;;;;;;21.00;18.33;;;;;;;;4955029;28;45884;-74
2023/05/19 04:43:43;;;;;;;;;25.33;19.67;;;;;;;;4941293;28;46269;-72
2023/05/19 04:46:12;;;;;;;;;22.67;15.67;;;;;;;;4940776;28;45440;-73
2023/05/19 04:48:37;;;;;;;;;23.00;21.00;;;;;;;;4935608;28;45626;-73
2023/05/19 04:51:02;;;;;;;;;25.33;19.33;;;;;;;;4945545;28;45424;-72
2023/05/19 04:53:28;;;;;;;;;22.00;20.00;;;;;;;;4947513;28;45385;-72
2023/05/19 04:55:53;;;;;;;;;25.00;18.33;;;;;;;;4949340;28;45484;-73
2023/05/19 04:58:18;;;;;;;;;15.33;14.33;;;;;;;;4950898;28;45420;-73
2023/05/19 05:00:44;;;;;;;;;26.33;18.67;;;;;;;;4952479;28;46153;-72
2023/05/19 05:03:09;;;;;;;;;20.33;15.33;;;;;;;;4953664;28;46286;-73
2023/05/19 05:05:34;;;;;;;;;22.33;18.00;;;;;;;;4969373;28;47171;-72
2023/05/19 05:08:00;;;;;;;;;15.33;12.33;;;;;;;;4942922;28;45479;-72
2023/05/19 05:10:25;;;;;;;;;20.00;16.67;;;;;;;;4954805;28;45475;-72
2023/05/19 05:12:50;;;;;;;;;19.67;19.33;;;;;;;;4953640;28;45595;-73
2023/05/19 05:15:16;;;;;;;;;22.67;17.00;;;;;;;;4953589;28;45922;-73
2023/05/19 05:17:42;;;;;;;;;20.33;18.00;;;;;;;;4953478;28;45554;-71
2023/05/19 05:20:08;;;;;;;;;22.00;19.67;;;;;;;;4945103;28;45687;-74
2023/05/19 05:22:33;;;;;;;;;21.67;15.33;;;;;;;;4954595;28;45496;-73
2023/05/19 05:24:59;;;;;;;;;19.33;16.00;;;;;;;;4951169;28;46715;-72
2023/05/19 05:27:24;;;;;;;;;22.33;18.33;;;;;;;;4951107;28;45732;-72
2023/05/19 05:29:50;;;;;;;;;18.00;14.67;;;;;;;;4951604;28;45863;-71
2023/05/19 05:32:16;;;;;;;;;18.33;15.67;;;;;;;;4944829;28;46021;-73
2023/05/19 05:34:41;;;;;;;;;18.67;17.33;;;;;;;;4955253;28;47568;-72
2023/05/19 05:37:06;;;;;;;;;18.33;15.00;;;;;;;;4949448;28;45709;-72
2023/05/19 05:39:32;;;;;;;;;15.00;13.67;;;;;;;;4953627;28;45559;-71
2023/05/19 05:41:57;;;;;;;;;15.67;14.33;;;;;;;;4941037;28;45650;-71
2023/05/19 05:44:22;;;;;;;;;15.33;12.33;;;;;;;;4952430;28;46298;-72
2023/05/19 05:46:48;;;;;;;;;19.33;16.33;;;;;;;;4939646;28;45644;-72
2023/05/19 05:49:13;;;;;;;;;12.00;12.00;;;;;;;;4945144;28;45959;-72
2023/05/19 05:51:38;;;;;;;;;21.33;17.00;;;;;;;;4949151;28;45907;-72
2023/05/19 05:54:05;;;;;;;;;17.33;15.67;;;;;;;;4950949;28;45722;-74
2023/05/19 05:56:32;;;;;;;;;24.33;18.67;;;;;;;;4950263;28;45722;-73
2023/05/19 05:58:57;;;;;;;;;16.67;12.67;;;;;;;;4948390;28;45207;-73
2023/05/19 06:01:23;;;;;;;;;18.33;16.00;;;;;;;;4948314;28;46057;-71
2023/05/19 06:03:48;;;;;;;;;15.33;12.33;;;;;;;;4942033;28;45764;-72
2023/05/19 06:06:13;;;;;;;;;20.67;15.67;;;;;;;;4933300;28;45683;-72
2023/05/19 06:08:38;;;;;;;;;12.00;11.67;;;;;;;;4945948;28;45354;-73
2023/05/19 06:11:07;;;;;;;;;15.33;11.00;;;;;;;;4946759;28;45725;-73
2023/05/19 06:13:36;;;;;;;;;15.00;11.33;;;;;;;;4937287;28;46268;-74
2023/05/19 06:16:02;;;;;;;;;12.67;12.67;;;;;;;;4946177;28;45567;-77
2023/05/19 06:18:27;;;;;;;;;16.00;12.33;;;;;;;;4939864;28;46070;-72
2023/05/19 06:20:53;;;;;;;;;14.33;12.33;;;;;;;;4939508;28;46175;-74
2023/05/19 06:23:18;;;;;;;;;15.00;13.67;;;;;;;;4942250;28;45734;-74
2023/05/19 06:25:43;;;;;;;;;11.00;9.33;;;;;;;;4952314;28;45402;-73
2023/05/19 06:28:08;;;;;;;;;14.33;14.00;;;;;;;;4961582;28;45330;-75
2023/05/19 06:30:35;;;;;;;;;11.67;11.67;;;;;;;;4943483;28;46196;-75
2023/05/19 06:33:01;;;;;;;;;13.00;11.50;;;;;;;;4956591;28;45819;-75
2023/05/19 06:35:27;;;;;;;;;18.33;17.67;;;;;;;;4951740;28;45764;-75
2023/05/19 06:37:52;;;;;;;;;14.67;13.67;;;;;;;;4947361;28;45702;-76
2023/05/19 06:40:17;;;;;;;;;12.00;10.33;;;;;;;;4956404;28;47158;-75
2023/05/19 06:42:42;;;;;;;;;12.00;12.00;;;;;;;;4947689;28;45779;-74
2023/05/19 06:45:08;;;;;;;;;15.00;13.67;;;;;;;;4937051;28;45972;-73
2023/05/19 06:47:33;;;;;;;;;13.25;12.25;;;;;;;;4936207;28;45549;-74
2023/05/19 06:49:58;;;;;;;;;13.00;11.50;;;;;;;;4948652;28;45600;-75
2023/05/19 06:52:24;;;;;;;;;16.33;13.00;;;;;;;;4948986;28;46745;-75
2023/05/19 06:54:49;;;;;;;;;12.75;11.50;;;;;;;;4950343;28;45673;-75
2023/05/19 06:57:14;;;;;;;;;12.00;12.00;;;;;;;;4950745;28;45718;-75
2023/05/19 06:59:42;;;;;;;;;12.25;12.25;;;;;;;;4949934;28;45696;-72
2023/05/19 07:02:07;;;;;;;;;18.25;14.00;;;;;;;;4940113;28;47203;-76
2023/05/19 07:04:32;;;;;;;;;11.67;11.67;;;;;;;;4945877;28;45526;-75
2023/05/19 07:06:57;;;;;;;;;13.50;12.75;;;;;;;;4937270;28;45976;-73
2023/05/19 07:09:23;;;;;;;;;15.25;10.50;;;;;;;;4950733;28;45926;-80
2023/05/19 07:11:48;;;;;;;;;14.75;11.75;;;;;;;;4957396;28;45554;-78
2023/05/19 07:14:13;;;;;;;;;19.00;15.00;;;;;;;;4950857;28;45880;-75
2023/05/19 07:16:39;;;;;;;;;12.00;12.00;;;;;;;;4947692;28;45514;-78
2023/05/19 07:19:04;;;;;;;;;18.67;16.00;;;;;;;;4943381;28;45683;-78
2023/05/19 07:21:29;;;;;;;;;12.50;12.50;;;;;;;;4948092;28;45675;-80
2023/05/19 07:23:55;;;;;;;;;14.75;13.75;;;;;;;;4948153;28;45742;-78
2023/05/19 07:26:21;;;;;;;;;12.25;11.50;;;;;;;;4944341;28;45968;-78
2023/05/19 07:28:50;;;;;;;;;12.25;12.25;;;;;;;;4955842;28;45819;-80
2023/05/19 07:31:16;;;;;;;;;14.75;12.25;;;;;;;;4942362;28;46430;-76
2023/05/19 07:33:41;;;;;;;;;15.00;12.25;;;;;;;;4949090;28;45672;-75
2023/05/19 07:36:06;;;;;;;;;12.00;12.00;;;;;;;;4941450;28;45781;-78
2023/05/19 07:38:35;;;;;;;;;12.50;11.50;;;;;;;;4945264;28;45685;-75
2023/05/19 07:41:01;;;;;;;;;11.33;11.00;;;;;;;;4942031;28;46349;-75
2023/05/19 07:43:26;;;;;;;;;13.67;12.33;;;;;;;;4935975;28;45845;-75
2023/05/19 07:45:52;;;;;;;;;11.00;11.00;;;;;;;;4943229;28;45511;-76
2023/05/19 07:48:17;;;;;;;;;12.00;10.50;;;;;;;;4942113;28;45916;-73
2023/05/19 07:50:43;;;;;;;;;12.75;10.50;;;;;;;;4948267;28;47676;-74
2023/05/19 07:53:08;;;;;;;;;12.00;10.67;;;;;;;;4944339;28;45542;-73
2023/05/19 07:55:33;;;;;;;;;14.67;13.33;;;;;;;;4941580;28;46133;-74
2023/05/19 07:57:58;;;;;;;;;12.33;12.33;;;;;;;;4942599;28;45952;-74
2023/05/19 08:00:24;;;;;;;;;12.75;10.50;;;;;;;;4943097;28;46605;-76
2023/05/19 08:02:49;;;;;;;;;12.00;10.75;;;;;;;;4948796;28;45570;-74
2023/05/19 08:05:14;;;;;;;;;9.25;8.75;;;;;;;;4944739;28;45439;-78
2023/05/19 08:07:40;;;;;;;;;12.75;11.25;;;;;;;;4950034;28;45856;-73
2023/05/19 08:10:05;;;;;;;;;13.25;13.00;;;;;;;;4942586;28;45901;-72
2023/05/19 08:12:31;;;;;;;;;12.00;10.33;;;;;;;;4950132;28;45737;-78
2023/05/19 08:14:56;;;;;;;;;10.50;10.50;;;;;;;;4950234;28;45622;-74
2023/05/19 08:17:22;;;;;;;;;11.75;10.00;;;;;;;;4951361;28;45527;-76
2023/05/19 08:19:47;;;;;;;;;9.00;9.00;;;;;;;;4950818;28;46365;-75
2023/05/19 08:22:12;;;;;;;;;10.33;10.33;;;;;;;;4951560;28;45457;-79
2023/05/19 08:24:41;;;;;;;;;12.25;10.75;;;;;;;;4949045;28;45505;-76
2023/05/19 08:27:06;;;;;;;;;12.25;8.25;;;;;;;;4942104;28;45966;-75
2023/05/19 08:29:31;;;;;;;;;11.00;10.50;;;;;;;;4940574;28;45978;-76
2023/05/19 08:31:57;;;;;;;;;9.25;9.00;;;;;;;;4946595;28;45270;-76
2023/05/19 08:34:22;;;;;;;;;10.00;10.00;;;;;;;;4954385;28;46809;-77
2023/05/19 08:36:47;;;;;;;;;11.33;10.33;;;;;;;;4956135;28;45496;-77
2023/05/19 08:39:15;;;;;;;;;9.50;6.25;;;;;;;;4955126;28;45524;-77
2023/05/19 08:41:40;;;;;;;;;9.67;9.33;;;;;;;;4958461;28;45464;-76
2023/05/19 08:44:05;;;;;;;;;10.75;9.50;;;;;;;;4953576;28;46438;-77
2023/05/19 08:46:30;;;;;;;;;9.25;8.25;;;;;;;;4954462;28;47528;-79
2023/05/19 08:49:03;;;;;;;;;8.25;8.25;;;;;;;;4943847;28;45774;-78
2023/05/19 08:51:28;;;;;;;;;9.50;8.25;;;;;;;;4945176;28;45585;-78
2023/05/19 08:53:56;;;;;;;;;10.50;9.00;;;;;;;;4951977;28;46112;-77
2023/05/19 08:56:23;;;;;;;;;10.75;9.00;;;;;;;;4954640;28;45841;-74
2023/05/19 08:58:49;;;;;;;;;9.25;6.75;;;;;;;;4954580;28;45952;-74
2023/05/19 09:01:18;;;;;;;;;11.50;10.25;;;;;;;;4947884;28;45393;-76
2023/05/19 09:03:45;;;;;;;;;8.75;8.25;;;;;;;;4959910;28;45373;-74
2023/05/19 09:06:13;;;;;;;;;8.50;8.25;;;;;;;;4951367;28;45419;-74
2023/05/19 09:08:39;;;;;;;;;8.00;7.50;;;;;;;;4952108;28;45711;-75
2023/05/19 09:11:05;;;;;;;;;11.00;8.25;;;;;;;;4951066;28;45820;-73
2023/05/19 09:13:30;;;;;;;;;10.25;9.00;;;;;;;;4951658;28;45680;-74
2023/05/19 09:15:56;;;;;;;;;8.75;7.25;;;;;;;;4946645;28;46205;-75
2023/05/19 09:18:23;;;;;;;;;8.50;7.50;;;;;;;;4952373;28;46234;-74
2023/05/19 09:20:48;;;;;;;;;9.75;7.50;;;;;;;;4952747;28;45464;-74
2023/05/19 09:23:14;;;;;;;;;9.50;9.50;;;;;;;;4952270;28;45711;-74
2023/05/19 09:25:46;;;;;;;;;8.75;8.25;;;;;;;;4950159;28;46503;-74
2023/05/19 09:28:11;;;;;;;;;9.75;8.00;;;;;;;;4953401;28;45676;-74
2023/05/19 09:30:36;;;;;;;;;8.00;8.00;;;;;;;;4949472;28;45647;-76
2023/05/19 09:33:03;;;;;;;;;7.75;6.75;;;;;;;;4956392;28;45887;-77
2023/05/19 09:35:33;;;;;;;;;9.00;8.00;;;;;;;;4960771;28;45334;-77
2023/05/19 09:37:59;;;;;;;;;9.50;7.00;;;;;;;;4952769;28;46240;-77
2023/05/19 09:40:26;;;;;;;;;10.50;8.75;;;;;;;;4954705;28;45613;-77
2023/05/19 09:42:52;;;;;;;;;8.00;8.00;;;;;;;;4963381;28;45962;-74
2023/05/19 09:45:18;;;;;;;;;9.25;7.75;;;;;;;;4952105;28;45768;-73
2023/05/19 09:47:43;;;;;;;;;10.00;8.75;;;;;;;;4951607;28;46393;-74
2023/05/19 09:50:10;;;;;;;;;8.25;8.00;;;;;;;;4953208;28;45338;-75
2023/05/19 09:52:41;;;;;;;;;9.00;9.00;;;;;;;;4953716;28;45807;-74
2023/05/19 09:55:11;;;;;;;;;8.25;8.00;;;;;;;;4956218;28;45776;-72
2023/05/19 09:57:39;;;;;;;;;9.33;8.67;;;;;;;;4953310;28;46228;-84
2023/05/19 10:00:10;;;;;;;;;8.75;8.75;;;;;;;;4944512;28;45553;-75
2023/05/19 10:02:43;;;;;;;;;6.00;6.00;;;;;;;;4950879;28;45850;-74
2023/05/19 10:05:15;;;;;;;;;12.25;11.00;;;;;;;;4951211;28;45706;-75
2023/05/19 10:07:41;;;;;;;;;11.25;10.00;;;;;;;;4952136;28;46208;-73
2023/05/19 10:10:11;;;;;;;;;8.00;7.00;;;;;;;;4943987;28;46008;-74
2023/05/19 10:12:38;;;;;;;;;8.75;8.75;;;;;;;;4952560;28;45453;-74
2023/05/19 10:15:03;;;;;;;;;10.75;9.00;;;;;;;;4940181;28;45846;-76
2023/05/19 10:17:29;;;;;;;;;11.00;9.67;;;;;;;;4944131;28;48449;-74
2023/05/19 10:19:54;;;;;;;;;10.33;9.00;;;;;;;;4954641;28;45746;-74
2023/05/19 10:22:20;;;;;;;;;9.00;9.00;;;;;;;;4936474;28;45669;-76
2023/05/19 10:24:45;;;;;;;;;10.67;10.67;;;;;;;;4944902;28;45554;-75
2023/05/19 10:27:13;;;;;;;;;11.75;9.50;;;;;;;;4950404;28;45788;-77
2023/05/19 10:29:40;;;;;;;;;9.25;7.75;;;;;;;;4950172;28;45711;-76
2023/05/19 10:32:09;;;;;;;;;8.00;7.00;;;;;;;;4945503;28;45921;-74
2023/05/19 10:34:53;;;;;;;;;7.25;7.25;;;;;;;;4953550;28;45719;-76
2023/05/19 10:37:33;;;;;;;;;10.25;9.00;;;;;;;;4948555;28;45744;-76
2023/05/19 10:39:59;;;;;;;;;8.75;8.50;;;;;;;;4949377;28;45771;-75
2023/05/19 10:42:24;;;;;;;;;9.25;7.00;;;;;;;;4941780;28;45913;-77
2023/05/19 10:45:09;;;;;;;;;6.00;6.00;;;;;;;;4947068;28;45584;-76
2023/05/19 10:47:34;;;;;;;;;10.50;10.50;;;;;;;;4957334;28;46531;-77
2023/05/19 10:50:00;;;;;;;;;8.00;8.00;;;;;;;;4950336;28;45482;-76
2023/05/19 10:52:28;;;;;;;;;7.67;6.33;;;;;;;;4946438;28;45873;-78
2023/05/19 10:54:53;;;;;;;;;11.67;9.67;;;;;;;;4948334;28;45437;-77
2023/05/19 10:57:23;;;;;;;;;7.00;7.00;;;;;;;;4944451;28;48008;-76
2023/05/19 10:59:49;;;;;;;;;10.75;8.50;;;;;;;;4948304;28;46525;-77
2023/05/19 11:02:33;;;;;;;;;12.67;9.67;;;;;;;;4944025;28;45790;-77
2023/05/19 11:05:13;;;;;;;;;11.00;9.33;;;;;;;;4947994;28;46012;-76
2023/05/19 11:07:43;;;;;;;;;5.50;2.75;;;;;;;;4947439;28;46396;-79
2023/05/19 11:13:20;;;;;;;;;8.00;6.75;;;;;;;;4933107;28;45897;-79
2023/05/19 11:15:45;;;;;;;;;10.00;9.00;;;;;;;;4948815;28;45684;-77
2023/05/19 11:18:14;;;;;;;;;10.00;8.33;;;;;;;;4953172;28;45993;-82
2023/05/19 11:20:39;;;;;;;;;10.33;10.33;;;;;;;;4954211;28;45639;-79
2023/05/19 11:23:05;;;;;;;;;9.67;8.00;;;;;;;;4949862;28;45460;-79
2023/05/19 11:25:40;;;;;;;;;9.00;8.00;;;;;;;;4949077;28;46036;-77
2023/05/19 11:28:05;;;;;;;;;12.33;11.67;;;;;;;;4956860;28;47057;-76
2023/05/19 11:30:32;;;;;;;;;9.67;9.67;;;;;;;;4947812;28;45408;-76
2023/05/19 11:32:57;;;;;;;;;7.67;7.67;;;;;;;;4944108;28;46501;-76
2023/05/19 11:35:23;;;;;;;;;9.67;9.00;;;;;;;;4947592;28;45880;-77
2023/05/19 11:37:51;;;;;;;;;6.67;4.33;;;;;;;;4949081;28;46396;-77
2023/05/19 11:40:17;;;;;;;;;9.33;8.00;;;;;;;;4950470;28;45991;-76
2023/05/19 11:42:43;;;;;;;;;9.00;7.00;;;;;;;;4948567;28;45526;-78
2023/05/19 11:45:09;;;;;;;;;10.67;10.33;;;;;;;;4948067;28;46017;-78
2023/05/19 11:47:34;;;;;;;;;8.00;6.67;;;;;;;;4948961;28;45575;-78
2023/05/19 11:50:04;;;;;;;;;11.67;9.33;;;;;;;;4949210;28;45615;-80
2023/05/19 11:52:30;;;;;;;;;13.67;8.33;;;;;;;;4953993;28;45438;-77
2023/05/19 11:54:59;;;;;;;;;10.00;9.67;;;;;;;;4957890;28;45544;-78
2023/05/19 11:57:25;;;;;;;;;10.67;10.67;;;;;;;;4942583;28;45862;-78
2023/05/19 11:59:52;;;;;;;;;9.67;8.67;;;;;;;;4947801;28;45769;-80
2023/05/19 12:02:18;;;;;;;;;10.33;10.33;;;;;;;;4950425;28;45890;-78
2023/05/19 12:04:43;;;;;;;;;7.33;7.33;;;;;;;;4947414;28;45778;-75
2023/05/19 12:07:16;;;;;;;;;6.67;6.33;;;;;;;;4947610;28;46829;-75
2023/05/19 12:09:42;;;;;;;;;9.33;7.00;;;;;;;;4949207;28;45790;-77
2023/05/19 12:12:07;;;;;;;;;8.33;8.33;;;;;;;;4949297;28;45690;-76
2023/05/19 12:14:33;;;;;;;;;9.67;6.00;;;;;;;;4950525;28;45429;-79
2023/05/19 12:16:58;;;;;;;;;8.67;7.00;;;;;;;;4947928;28;46412;-77
2023/05/19 12:19:27;;;;;;;;;8.33;6.67;;;;;;;;4951974;28;45920;-76
2023/05/19 12:21:52;;;;;;;;;5.67;5.00;;;;;;;;4951533;28;45416;-77
2023/05/19 12:24:20;;;;;;;;;12.33;10.00;;;;;;;;4953245;28;45790;-79
2023/05/19 12:26:46;;;;;;;;;10.00;10.00;;;;;;;;4947403;28;46586;-75
2023/05/19 12:29:12;;;;;;;;;11.67;10.00;;;;;;;;4946373;28;45640;-74
2023/05/19 12:31:37;;;;;;;;;10.67;9.33;;;;;;;;4944428;28;45553;-78
2023/05/19 12:34:02;;;;;;;;;8.67;7.67;;;;;;;;4952781;28;45529;-79
2023/05/19 12:36:28;;;;;;;;;13.00;10.00;;;;;;;;4950007;28;45576;-76
2023/05/19 12:38:53;;;;;;;;;10.33;9.33;;;;;;;;4948373;28;45899;-76
2023/05/19 12:41:19;;;;;;;;;16.67;11.33;;;;;;;;4949092;28;45738;-75
2023/05/19 12:43:44;;;;;;;;;16.33;8.33;;;;;;;;4946000;28;46019;-77
2023/05/19 12:46:14;;;;;;;;;10.00;9.00;;;;;;;;4946736;28;45844;-76
2023/05/19 12:48:40;;;;;;;;;8.00;5.67;;;;;;;;4949392;28;45960;-76
2023/05/19 12:51:06;;;;;;;;;11.00;8.67;;;;;;;;4946808;28;45473;-76
2023/05/19 12:53:31;;;;;;;;;14.67;11.33;;;;;;;;4949750;28;45888;-76
2023/05/19 12:55:57;;;;;;;;;11.00;11.00;;;;;;;;4947442;28;46052;-76
2023/05/19 12:58:22;;;;;;;;;11.33;8.67;;;;;;;;4947436;28;46039;-75
2023/05/19 13:00:48;;;;;;;;;14.00;12.00;;;;;;;;4947166;28;45908;-76
2023/05/19 13:03:19;;;;;;;;;10.33;9.67;;;;;;;;4947123;28;45760;-76
2023/05/19 13:05:45;;;;;;;;;13.00;9.33;;;;;;;;4949064;28;46633;-77
2023/05/19 13:08:12;;;;;;;;;13.00;10.00;;;;;;;;4946851;28;45613;-75
2023/05/19 13:10:38;;;;;;;;;12.67;11.00;;;;;;;;4945274;28;46789;-76
2023/05/19 13:13:03;;;;;;;;;9.67;9.67;;;;;;;;4947492;28;47173;-75
2023/05/19 13:15:36;;;;;;;;;7.00;7.00;;;;;;;;4948080;28;46732;-76
2023/05/19 13:18:02;;;;;;;;;9.67;7.67;;;;;;;;4944494;28;45505;-77
2023/05/19 13:20:27;;;;;;;;;9.00;6.33;;;;;;;;4946029;28;45815;-78
2023/05/19 13:22:53;;;;;;;;;11.33;11.33;;;;;;;;4950274;28;46941;-76
2023/05/19 13:25:18;;;;;;;;;12.00;9.33;;;;;;;;4952156;28;45777;-78
2023/05/19 13:27:44;;;;;;;;;5.67;5.67;;;;;;;;4941431;28;45928;-78
2023/05/19 13:30:10;;;;;;;;;18.00;15.00;;;;;;;;4951228;28;45772;-78
2023/05/19 13:32:35;;;;;;;;;9.00;9.00;;;;;;;;4947858;28;45940;-75
2023/05/19 13:35:00;;;;;;;;;11.67;11.67;;;;;;;;4951086;28;46347;-72
2023/05/19 13:37:26;;;;;;;;;8.33;7.67;;;;;;;;4953902;28;45849;-74
2023/05/19 13:39:51;;;;;;;;;9.00;8.67;;;;;;;;4950498;28;45463;-73
2023/05/19 13:42:16;;;;;;;;;10.67;10.00;;;;;;;;4951006;28;45862;-73
2023/05/19 13:44:43;;;;;;;;;7.67;7.67;;;;;;;;4952157;28;45450;-74
2023/05/19 13:47:08;;;;;;;;;11.33;10.33;;;;;;;;4950478;28;45764;-75
2023/05/19 13:49:33;;;;;;;;;11.67;8.67;;;;;;;;4949025;28;45718;-73
2023/05/19 13:51:58;;;;;;;;;9.33;9.33;;;;;;;;4950461;28;45908;-75
2023/05/19 13:54:24;;;;;;;;;9.33;8.67;;;;;;;;4950743;28;46842;-73
2023/05/19 13:56:49;;;;;;;;;7.67;7.67;;;;;;;;4952092;28;45849;-73
2023/05/19 13:59:16;;;;;;;;;7.67;6.33;;;;;;;;4951915;28;45822;-74
2023/05/19 14:01:42;;;;;;;;;11.00;8.00;;;;;;;;4952395;28;45829;-73
2023/05/19 14:04:07;;;;;;;;;6.67;6.67;;;;;;;;4952186;28;45531;-74
2023/05/19 14:06:32;;;;;;;;;10.67;8.33;;;;;;;;4952969;28;45515;-74
2023/05/19 14:08:57;;;;;;;;;8.67;8.67;;;;;;;;4949703;28;45430;-74
2023/05/19 14:11:23;;;;;;;;;7.67;6.67;;;;;;;;4954368;28;45788;-74
2023/05/19 14:13:49;;;;;;;;;11.33;9.67;;;;;;;;4953168;28;46578;-73
2023/05/19 14:16:14;;;;;;;;;11.33;9.00;;;;;;;;4952123;28;45818;-73
2023/05/19 14:18:40;;;;;;;;;9.67;9.67;;;;;;;;4951854;28;45401;-75
2023/05/19 14:21:05;;;;;;;;;10.00;10.00;;;;;;;;4947117;28;45878;-74